Tuxford, Canada
Current Conditions -  °F | °C
As of 6:00 AM on Sunday 25 Jan 2015 (Local Time) from CYQR Reporting Station
Moderate Fog Moderate Fog  
Wind Chill: 17°   Ceiling: 300
Heat Index: 23°   Visibility: 0.25mi
Dew Point: 23°   Wind: 5mph
Humidity: 100%   Direction: 170°S
Pressure: 29.95"   Gusts: NA
Location:  50.58°N, 105.58°W
Report Text: CYQR 251200Z 17004KT 1/4SM R13/3000FT/N FZFG VV003 M05/M05 A2995 RMK FG8 SLP171
Loading
Personal Weather Stations






























Interactive Weather Map New forecast layout! Learn more

10-Day Weather Forecast

Advertisements
Track Severe Weather on mobile